sensor_id;sensor_type;location;lat;lon;timestamp;temperature;humidity
2477;DHT22;1249;51.270;6.756;2022-08-19T00:00:48;24.80;87.10
2477;DHT22;1249;51.270;6.756;2022-08-19T00:03:17;24.80;87.20
2477;DHT22;1249;51.270;6.756;2022-08-19T00:05:44;24.80;87.20
2477;DHT22;1249;51.270;6.756;2022-08-19T00:08:11;24.80;87.40
2477;DHT22;1249;51.270;6.756;2022-08-19T00:10:38;24.80;87.60
2477;DHT22;1249;51.270;6.756;2022-08-19T00:13:05;24.80;87.60
2477;DHT22;1249;51.270;6.756;2022-08-19T00:15:31;24.70;87.60
2477;DHT22;1249;51.270;6.756;2022-08-19T00:17:58;24.70;87.70
2477;DHT22;1249;51.270;6.756;2022-08-19T00:20:27;24.70;87.70
2477;DHT22;1249;51.270;6.756;2022-08-19T00:22:54;24.70;88.60
2477;DHT22;1249;51.270;6.756;2022-08-19T00:25:21;24.70;88.00
2477;DHT22;1249;51.270;6.756;2022-08-19T00:27:48;24.70;88.10
2477;DHT22;1249;51.270;6.756;2022-08-19T00:30:15;24.60;88.00
2477;DHT22;1249;51.270;6.756;2022-08-19T00:32:42;24.70;88.20
2477;DHT22;1249;51.270;6.756;2022-08-19T00:35:09;24.60;88.30
2477;DHT22;1249;51.270;6.756;2022-08-19T00:37:38;24.60;88.40
2477;DHT22;1249;51.270;6.756;2022-08-19T00:40:11;24.60;88.40
2477;DHT22;1249;51.270;6.756;2022-08-19T00:42:38;24.60;88.50
2477;DHT22;1249;51.270;6.756;2022-08-19T00:45:10;24.60;88.60
2477;DHT22;1249;51.270;6.756;2022-08-19T00:47:37;24.60;88.70
2477;DHT22;1249;51.270;6.756;2022-08-19T00:50:06;24.60;88.70
2477;DHT22;1249;51.270;6.756;2022-08-19T00:52:39;24.50;88.70
2477;DHT22;1249;51.270;6.756;2022-08-19T00:55:08;24.50;88.70
2477;DHT22;1249;51.270;6.756;2022-08-19T00:57:40;24.50;88.80
2477;DHT22;1249;51.270;6.756;2022-08-19T01:00:12;24.50;89.00
2477;DHT22;1249;51.270;6.756;2022-08-19T01:02:41;24.50;89.00
2477;DHT22;1249;51.270;6.756;2022-08-19T01:05:11;24.50;89.10
2477;DHT22;1249;51.270;6.756;2022-08-19T01:07:40;24.40;89.00
2477;DHT22;1249;51.270;6.756;2022-08-19T01:10:11;24.40;89.10
2477;DHT22;1249;51.270;6.756;2022-08-19T01:12:39;24.40;89.10
2477;DHT22;1249;51.270;6.756;2022-08-19T01:15:09;24.40;89.20
2477;DHT22;1249;51.270;6.756;2022-08-19T01:17:39;24.40;89.10
2477;DHT22;1249;51.270;6.756;2022-08-19T01:20:10;24.40;89.20
2477;DHT22;1249;51.270;6.756;2022-08-19T01:22:44;24.30;89.20
2477;DHT22;1249;51.270;6.756;2022-08-19T01:25:13;24.30;89.30
2477;DHT22;1249;51.270;6.756;2022-08-19T01:27:43;24.30;89.40
2477;DHT22;1249;51.270;6.756;2022-08-19T01:30:12;24.30;89.50
2477;DHT22;1249;51.270;6.756;2022-08-19T01:32:41;24.30;89.50
2477;DHT22;1249;51.270;6.756;2022-08-19T01:35:10;24.30;89.50
2477;DHT22;1249;51.270;6.756;2022-08-19T01:37:47;24.30;89.50
2477;DHT22;1249;51.270;6.756;2022-08-19T01:40:15;24.30;89.70
2477;DHT22;1249;51.270;6.756;2022-08-19T01:42:42;24.30;89.60
2477;DHT22;1249;51.270;6.756;2022-08-19T01:45:09;24.20;89.50
2477;DHT22;1249;51.270;6.756;2022-08-19T01:47:37;24.20;89.70
2477;DHT22;1249;51.270;6.756;2022-08-19T01:50:06;24.20;89.70
2477;DHT22;1249;51.270;6.756;2022-08-19T01:52:34;24.20;89.80
2477;DHT22;1249;51.270;6.756;2022-08-19T01:55:04;24.20;89.80
2477;DHT22;1249;51.270;6.756;2022-08-19T01:57:31;24.20;89.90
2477;DHT22;1249;51.270;6.756;2022-08-19T01:59:58;24.20;89.90
2477;DHT22;1249;51.270;6.756;2022-08-19T02:02:26;24.10;89.90
2477;DHT22;1249;51.270;6.756;2022-08-19T02:04:52;24.20;89.90
2477;DHT22;1249;51.270;6.756;2022-08-19T02:07:19;24.10;90.00
2477;DHT22;1249;51.270;6.756;2022-08-19T02:09:47;24.10;90.00
2477;DHT22;1249;51.270;6.756;2022-08-19T02:12:15;24.10;90.00
2477;DHT22;1249;51.270;6.756;2022-08-19T02:14:42;24.10;90.00
2477;DHT22;1249;51.270;6.756;2022-08-19T02:17:09;24.10;90.00
2477;DHT22;1249;51.270;6.756;2022-08-19T02:19:36;24.10;90.00
2477;DHT22;1249;51.270;6.756;2022-08-19T02:22:03;24.00;90.10
2477;DHT22;1249;51.270;6.756;2022-08-19T02:24:30;24.00;90.10
2477;DHT22;1249;51.270;6.756;2022-08-19T02:26:57;24.00;90.10
2477;DHT22;1249;51.270;6.756;2022-08-19T02:29:26;24.00;90.10
2477;DHT22;1249;51.270;6.756;2022-08-19T02:31:53;24.00;90.20
2477;DHT22;1249;51.270;6.756;2022-08-19T02:34:19;24.00;90.20
2477;DHT22;1249;51.270;6.756;2022-08-19T02:36:46;24.00;90.20
2477;DHT22;1249;51.270;6.756;2022-08-19T02:39:13;24.00;90.20
2477;DHT22;1249;51.270;6.756;2022-08-19T02:41:39;24.00;90.30
2477;DHT22;1249;51.270;6.756;2022-08-19T02:44:07;24.00;90.30
2477;DHT22;1249;51.270;6.756;2022-08-19T02:46:35;23.90;90.20
2477;DHT22;1249;51.270;6.756;2022-08-19T02:49:04;23.90;90.30
2477;DHT22;1249;51.270;6.756;2022-08-19T02:51:33;23.90;90.30
2477;DHT22;1249;51.270;6.756;2022-08-19T02:54:01;23.90;90.30
2477;DHT22;1249;51.270;6.756;2022-08-19T02:56:29;23.90;90.30
2477;DHT22;1249;51.270;6.756;2022-08-19T02:58:57;23.90;90.30
2477;DHT22;1249;51.270;6.756;2022-08-19T03:01:27;23.80;90.30
2477;DHT22;1249;51.270;6.756;2022-08-19T03:03:59;23.80;90.30
2477;DHT22;1249;51.270;6.756;2022-08-19T03:06:27;23.90;90.40
2477;DHT22;1249;51.270;6.756;2022-08-19T03:08:55;24.00;90.40
2477;DHT22;1249;51.270;6.756;2022-08-19T03:11:24;23.80;90.40
2477;DHT22;1249;51.270;6.756;2022-08-19T03:13:52;23.80;90.40
2477;DHT22;1249;51.270;6.756;2022-08-19T03:16:21;23.80;90.40
2477;DHT22;1249;51.270;6.756;2022-08-19T03:18:48;23.80;90.40
2477;DHT22;1249;51.270;6.756;2022-08-19T03:21:17;23.80;90.40
2477;DHT22;1249;51.270;6.756;2022-08-19T03:23:44;23.80;90.40
2477;DHT22;1249;51.270;6.756;2022-08-19T03:26:11;23.80;90.40
2477;DHT22;1249;51.270;6.756;2022-08-19T03:28:40;23.80;90.50
2477;DHT22;1249;51.270;6.756;2022-08-19T03:31:10;23.80;90.50
2477;DHT22;1249;51.270;6.756;2022-08-19T03:33:37;23.80;90.50
2477;DHT22;1249;51.270;6.756;2022-08-19T03:36:07;23.70;90.50
2477;DHT22;1249;51.270;6.756;2022-08-19T03:38:38;23.70;90.50
2477;DHT22;1249;51.270;6.756;2022-08-19T03:41:07;23.70;90.60
2477;DHT22;1249;51.270;6.756;2022-08-19T03:43:36;23.70;90.60
2477;DHT22;1249;51.270;6.756;2022-08-19T03:46:06;23.70;90.70
2477;DHT22;1249;51.270;6.756;2022-08-19T03:48:34;23.70;90.70
2477;DHT22;1249;51.270;6.756;2022-08-19T03:51:02;23.70;90.60
2477;DHT22;1249;51.270;6.756;2022-08-19T03:53:29;23.70;90.60
2477;DHT22;1249;51.270;6.756;2022-08-19T03:55:58;23.70;90.70
2477;DHT22;1249;51.270;6.756;2022-08-19T03:58:27;23.70;90.60
2477;DHT22;1249;51.270;6.756;2022-08-19T04:00:55;23.70;90.70
2477;DHT22;1249;51.270;6.756;2022-08-19T04:03:22;23.70;90.70
2477;DHT22;1249;51.270;6.756;2022-08-19T04:05:49;23.60;90.60
2477;DHT22;1249;51.270;6.756;2022-08-19T04:08:16;23.70;90.80
2477;DHT22;1249;51.270;6.756;2022-08-19T04:10:44;23.60;90.70
2477;DHT22;1249;51.270;6.756;2022-08-19T04:13:12;23.70;90.80
2477;DHT22;1249;51.270;6.756;2022-08-19T04:15:40;23.60;90.70
2477;DHT22;1249;51.270;6.756;2022-08-19T04:18:07;23.60;90.70
2477;DHT22;1249;51.270;6.756;2022-08-19T04:20:42;23.60;90.80
2477;DHT22;1249;51.270;6.756;2022-08-19T04:23:10;23.60;90.90
2477;DHT22;1249;51.270;6.756;2022-08-19T04:25:38;23.60;90.90
2477;DHT22;1249;51.270;6.756;2022-08-19T04:28:05;23.60;90.90
2477;DHT22;1249;51.270;6.756;2022-08-19T04:30:40;23.60;91.00
2477;DHT22;1249;51.270;6.756;2022-08-19T04:33:07;23.60;91.00
2477;DHT22;1249;51.270;6.756;2022-08-19T04:35:38;23.60;91.00
2477;DHT22;1249;51.270;6.756;2022-08-19T04:38:06;23.60;91.10
2477;DHT22;1249;51.270;6.756;2022-08-19T04:40:33;23.50;91.40
2477;DHT22;1249;51.270;6.756;2022-08-19T04:43:18;23.60;91.10
2477;DHT22;1249;51.270;6.756;2022-08-19T04:45:46;23.60;91.40
2477;DHT22;1249;51.270;6.756;2022-08-19T04:48:13;23.50;91.00
2477;DHT22;1249;51.270;6.756;2022-08-19T04:50:41;23.50;91.00
2477;DHT22;1249;51.270;6.756;2022-08-19T04:53:09;23.50;91.10
2477;DHT22;1249;51.270;6.756;2022-08-19T04:55:39;23.50;91.10
2477;DHT22;1249;51.270;6.756;2022-08-19T04:58:07;23.50;91.10
2477;DHT22;1249;51.270;6.756;2022-08-19T05:00:33;23.50;91.20
2477;DHT22;1249;51.270;6.756;2022-08-19T05:03:02;23.50;91.20
2477;DHT22;1249;51.270;6.756;2022-08-19T05:05:29;23.50;91.20
2477;DHT22;1249;51.270;6.756;2022-08-19T05:07:57;23.50;91.20
2477;DHT22;1249;51.270;6.756;2022-08-19T05:10:24;23.50;91.20
2477;DHT22;1249;51.270;6.756;2022-08-19T05:12:50;23.50;91.20
2477;DHT22;1249;51.270;6.756;2022-08-19T05:15:17;23.50;91.40
2477;DHT22;1249;51.270;6.756;2022-08-19T05:17:45;23.50;91.60
2477;DHT22;1249;51.270;6.756;2022-08-19T05:20:33;23.50;91.50
2477;DHT22;1249;51.270;6.756;2022-08-19T05:23:17;23.50;91.70
2477;DHT22;1249;51.270;6.756;2022-08-19T05:25:44;23.50;92.00
2477;DHT22;1249;51.270;6.756;2022-08-19T05:28:11;23.50;92.00
2477;DHT22;1249;51.270;6.756;2022-08-19T05:30:38;23.60;92.00
2477;DHT22;1249;51.270;6.756;2022-08-19T05:33:06;23.40;92.90
2477;DHT22;1249;51.270;6.756;2022-08-19T05:35:38;23.30;93.60
2477;DHT22;1249;51.270;6.756;2022-08-19T05:38:05;23.30;94.20
2477;DHT22;1249;51.270;6.756;2022-08-19T05:40:34;23.30;95.10
2477;DHT22;1249;51.270;6.756;2022-08-19T05:43:02;23.40;95.60
2477;DHT22;1249;51.270;6.756;2022-08-19T05:45:29;23.40;95.50
2477;DHT22;1249;51.270;6.756;2022-08-19T05:47:56;23.60;95.40
2477;DHT22;1249;51.270;6.756;2022-08-19T05:50:23;23.40;95.30
2477;DHT22;1249;51.270;6.756;2022-08-19T05:52:53;23.40;95.30
2477;DHT22;1249;51.270;6.756;2022-08-19T05:55:19;23.60;95.20
2477;DHT22;1249;51.270;6.756;2022-08-19T05:57:49;23.60;95.10
2477;DHT22;1249;51.270;6.756;2022-08-19T06:00:16;23.60;95.10
2477;DHT22;1249;51.270;6.756;2022-08-19T06:02:43;23.60;95.10
2477;DHT22;1249;51.270;6.756;2022-08-19T06:05:10;23.70;95.10
2477;DHT22;1249;51.270;6.756;2022-08-19T06:07:38;23.70;95.10
2477;DHT22;1249;51.270;6.756;2022-08-19T06:10:10;23.70;95.00
2477;DHT22;1249;51.270;6.756;2022-08-19T06:12:37;23.70;95.00
2477;DHT22;1249;51.270;6.756;2022-08-19T06:15:08;23.70;95.00
2477;DHT22;1249;51.270;6.756;2022-08-19T06:17:35;23.70;95.00
2477;DHT22;1249;51.270;6.756;2022-08-19T06:20:03;23.80;95.00
2477;DHT22;1249;51.270;6.756;2022-08-19T06:22:30;23.80;95.20
2477;DHT22;1249;51.270;6.756;2022-08-19T06:24:57;23.80;95.10
2477;DHT22;1249;51.270;6.756;2022-08-19T06:27:25;23.80;95.20
2477;DHT22;1249;51.270;6.756;2022-08-19T06:29:52;23.80;95.20
2477;DHT22;1249;51.270;6.756;2022-08-19T06:32:19;23.80;95.10
2477;DHT22;1249;51.270;6.756;2022-08-19T06:34:46;23.90;95.00
2477;DHT22;1249;51.270;6.756;2022-08-19T06:37:13;23.90;95.00
2477;DHT22;1249;51.270;6.756;2022-08-19T06:39:42;24.00;94.90
2477;DHT22;1249;51.270;6.756;2022-08-19T06:42:10;24.00;94.80
2477;DHT22;1249;51.270;6.756;2022-08-19T06:44:41;24.10;94.70
2477;DHT22;1249;51.270;6.756;2022-08-19T06:47:10;24.20;94.70
2477;DHT22;1249;51.270;6.756;2022-08-19T06:49:37;24.20;94.70
2477;DHT22;1249;51.270;6.756;2022-08-19T06:52:05;24.30;94.70
2477;DHT22;1249;51.270;6.756;2022-08-19T06:54:32;24.30;94.50
2477;DHT22;1249;51.270;6.756;2022-08-19T06:57:00;24.40;94.50
2477;DHT22;1249;51.270;6.756;2022-08-19T06:59:28;24.40;94.30
2477;DHT22;1249;51.270;6.756;2022-08-19T07:01:59;24.40;94.30
2477;DHT22;1249;51.270;6.756;2022-08-19T07:04:29;24.50;94.20
2477;DHT22;1249;51.270;6.756;2022-08-19T07:06:59;24.50;94.00
2477;DHT22;1249;51.270;6.756;2022-08-19T07:09:27;24.60;93.80
2477;DHT22;1249;51.270;6.756;2022-08-19T07:11:54;24.80;93.70
2477;DHT22;1249;51.270;6.756;2022-08-19T07:14:24;24.80;93.50
2477;DHT22;1249;51.270;6.756;2022-08-19T07:16:53;25.00;93.10
2477;DHT22;1249;51.270;6.756;2022-08-19T07:19:23;25.10;93.00
2477;DHT22;1249;51.270;6.756;2022-08-19T07:21:51;25.30;92.80
2477;DHT22;1249;51.270;6.756;2022-08-19T07:24:19;25.40;92.40
2477;DHT22;1249;51.270;6.756;2022-08-19T07:26:50;25.50;92.00
2477;DHT22;1249;51.270;6.756;2022-08-19T07:29:18;25.60;91.70
2477;DHT22;1249;51.270;6.756;2022-08-19T07:31:48;25.70;91.20
2477;DHT22;1249;51.270;6.756;2022-08-19T07:34:15;25.80;91.10
2477;DHT22;1249;51.270;6.756;2022-08-19T07:36:44;25.90;90.70
2477;DHT22;1249;51.270;6.756;2022-08-19T07:39:14;26.00;90.70
2477;DHT22;1249;51.270;6.756;2022-08-19T07:41:42;26.10;90.80
2477;DHT22;1249;51.270;6.756;2022-08-19T07:44:10;26.20;90.60
2477;DHT22;1249;51.270;6.756;2022-08-19T07:46:41;26.30;90.60
2477;DHT22;1249;51.270;6.756;2022-08-19T07:49:11;26.40;90.70
2477;DHT22;1249;51.270;6.756;2022-08-19T07:51:47;26.50;90.30
2477;DHT22;1249;51.270;6.756;2022-08-19T07:54:15;26.70;89.60
2477;DHT22;1249;51.270;6.756;2022-08-19T07:56:42;26.70;88.60
2477;DHT22;1249;51.270;6.756;2022-08-19T07:59:09;26.80;88.40
2477;DHT22;1249;51.270;6.756;2022-08-19T08:01:37;26.80;88.70
2477;DHT22;1249;51.270;6.756;2022-08-19T08:04:06;26.80;88.50
2477;DHT22;1249;51.270;6.756;2022-08-19T08:06:52;26.80;88.40
2477;DHT22;1249;51.270;6.756;2022-08-19T08:09:41;26.70;88.00
2477;DHT22;1249;51.270;6.756;2022-08-19T08:12:11;26.70;88.00
2477;DHT22;1249;51.270;6.756;2022-08-19T08:14:41;26.60;88.00
2477;DHT22;1249;51.270;6.756;2022-08-19T08:17:10;26.50;88.20
2477;DHT22;1249;51.270;6.756;2022-08-19T08:19:38;26.40;89.00
2477;DHT22;1249;51.270;6.756;2022-08-19T08:22:09;26.20;89.70
2477;DHT22;1249;51.270;6.756;2022-08-19T08:24:56;26.20;89.90
2477;DHT22;1249;51.270;6.756;2022-08-19T08:27:27;26.20;89.80
2477;DHT22;1249;51.270;6.756;2022-08-19T08:29:56;26.20;90.00
2477;DHT22;1249;51.270;6.756;2022-08-19T08:32:23;26.30;89.80
2477;DHT22;1249;51.270;6.756;2022-08-19T08:34:50;26.40;89.10
2477;DHT22;1249;51.270;6.756;2022-08-19T08:37:18;26.40;89.40
2477;DHT22;1249;51.270;6.756;2022-08-19T08:39:45;26.60;88.80
2477;DHT22;1249;51.270;6.756;2022-08-19T08:42:19;26.70;88.40
2477;DHT22;1249;51.270;6.756;2022-08-19T08:44:53;26.90;88.90
2477;DHT22;1249;51.270;6.756;2022-08-19T08:47:25;27.10;88.30
2477;DHT22;1249;51.270;6.756;2022-08-19T08:49:58;27.40;87.70
2477;DHT22;1249;51.270;6.756;2022-08-19T08:52:30;27.70;85.30
2477;DHT22;1249;51.270;6.756;2022-08-19T08:55:07;27.90;84.10
2477;DHT22;1249;51.270;6.756;2022-08-19T08:57:39;28.00;83.20
2477;DHT22;1249;51.270;6.756;2022-08-19T09:00:12;28.20;82.20
2477;DHT22;1249;51.270;6.756;2022-08-19T09:02:40;28.30;80.50
2477;DHT22;1249;51.270;6.756;2022-08-19T09:05:09;28.40;79.30
2477;DHT22;1249;51.270;6.756;2022-08-19T09:07:53;28.50;79.10
2477;DHT22;1249;51.270;6.756;2022-08-19T09:10:29;28.50;78.60
2477;DHT22;1249;51.270;6.756;2022-08-19T09:13:05;28.80;77.90
2477;DHT22;1249;51.270;6.756;2022-08-19T09:15:40;29.00;76.50
2477;DHT22;1249;51.270;6.756;2022-08-19T09:18:08;29.10;75.60
2477;DHT22;1249;51.270;6.756;2022-08-19T09:20:35;29.20;74.60
2477;DHT22;1249;51.270;6.756;2022-08-19T09:23:03;29.50;74.10
2477;DHT22;1249;51.270;6.756;2022-08-19T09:25:30;29.60;73.20
2477;DHT22;1249;51.270;6.756;2022-08-19T09:28:00;29.80;72.70
2477;DHT22;1249;51.270;6.756;2022-08-19T09:30:31;29.90;72.30
2477;DHT22;1249;51.270;6.756;2022-08-19T09:32:59;29.90;72.20
2477;DHT22;1249;51.270;6.756;2022-08-19T09:35:28;30.00;71.40
2477;DHT22;1249;51.270;6.756;2022-08-19T09:37:56;29.90;70.70
2477;DHT22;1249;51.270;6.756;2022-08-19T09:40:25;30.00;70.80
2477;DHT22;1249;51.270;6.756;2022-08-19T09:42:52;30.00;71.10
2477;DHT22;1249;51.270;6.756;2022-08-19T09:45:21;30.10;71.20
2477;DHT22;1249;51.270;6.756;2022-08-19T09:47:49;30.10;71.50
2477;DHT22;1249;51.270;6.756;2022-08-19T09:50:16;30.20;71.30
2477;DHT22;1249;51.270;6.756;2022-08-19T09:52:44;30.40;70.80
2477;DHT22;1249;51.270;6.756;2022-08-19T09:55:12;30.60;70.10
2477;DHT22;1249;51.270;6.756;2022-08-19T09:57:40;30.80;69.80
2477;DHT22;1249;51.270;6.756;2022-08-19T10:00:09;31.00;69.20
2477;DHT22;1249;51.270;6.756;2022-08-19T10:02:36;31.30;68.70
2477;DHT22;1249;51.270;6.756;2022-08-19T10:05:04;31.50;68.00
2477;DHT22;1249;51.270;6.756;2022-08-19T10:07:48;31.70;66.70
2477;DHT22;1249;51.270;6.756;2022-08-19T10:10:16;31.90;65.90
2477;DHT22;1249;51.270;6.756;2022-08-19T10:12:44;32.20;65.10
2477;DHT22;1249;51.270;6.756;2022-08-19T10:15:13;32.40;64.80
2477;DHT22;1249;51.270;6.756;2022-08-19T10:17:40;32.60;63.60
2477;DHT22;1249;51.270;6.756;2022-08-19T10:20:07;32.70;62.70
2477;DHT22;1249;51.270;6.756;2022-08-19T10:22:34;32.70;61.50
2477;DHT22;1249;51.270;6.756;2022-08-19T10:25:04;32.60;61.00
2477;DHT22;1249;51.270;6.756;2022-08-19T10:27:31;32.70;60.70
2477;DHT22;1249;51.270;6.756;2022-08-19T10:29:59;32.70;60.60
2477;DHT22;1249;51.270;6.756;2022-08-19T10:32:26;32.80;60.20
2477;DHT22;1249;51.270;6.756;2022-08-19T10:34:54;32.90;59.80
2477;DHT22;1249;51.270;6.756;2022-08-19T10:37:21;33.10;59.60
2477;DHT22;1249;51.270;6.756;2022-08-19T10:39:48;33.20;59.00
2477;DHT22;1249;51.270;6.756;2022-08-19T10:42:15;33.40;58.30
2477;DHT22;1249;51.270;6.756;2022-08-19T10:44:44;33.60;58.20
2477;DHT22;1249;51.270;6.756;2022-08-19T10:47:13;33.80;57.90
2477;DHT22;1249;51.270;6.756;2022-08-19T10:49:40;34.00;57.30
2477;DHT22;1249;51.270;6.756;2022-08-19T10:52:20;33.90;57.00
2477;DHT22;1249;51.270;6.756;2022-08-19T10:54:59;33.90;57.10
2477;DHT22;1249;51.270;6.756;2022-08-19T10:57:43;33.80;57.40
2477;DHT22;1249;51.270;6.756;2022-08-19T11:00:11;33.80;57.50
2477;DHT22;1249;51.270;6.756;2022-08-19T11:02:40;33.80;57.20
2477;DHT22;1249;51.270;6.756;2022-08-19T11:05:08;33.90;56.50
2477;DHT22;1249;51.270;6.756;2022-08-19T11:07:36;33.80;56.20
2477;DHT22;1249;51.270;6.756;2022-08-19T11:10:05;33.70;55.50
2477;DHT22;1249;51.270;6.756;2022-08-19T11:12:32;33.40;55.70
2477;DHT22;1249;51.270;6.756;2022-08-19T11:14:59;33.20;56.10
2477;DHT22;1249;51.270;6.756;2022-08-19T11:17:27;33.10;57.10
2477;DHT22;1249;51.270;6.756;2022-08-19T11:19:58;33.20;57.90
2477;DHT22;1249;51.270;6.756;2022-08-19T11:22:29;33.60;57.30
2477;DHT22;1249;51.270;6.756;2022-08-19T11:24:56;34.00;57.10
2477;DHT22;1249;51.270;6.756;2022-08-19T11:27:23;34.40;56.50
2477;DHT22;1249;51.270;6.756;2022-08-19T11:29:49;34.80;56.10
2477;DHT22;1249;51.270;6.756;2022-08-19T11:32:18;35.10;55.50
2477;DHT22;1249;51.270;6.756;2022-08-19T11:34:45;35.50;55.00
2477;DHT22;1249;51.270;6.756;2022-08-19T11:37:13;35.70;54.00
2477;DHT22;1249;51.270;6.756;2022-08-19T11:39:41;35.90;53.10
2477;DHT22;1249;51.270;6.756;2022-08-19T11:42:08;36.10;53.30
2477;DHT22;1249;51.270;6.756;2022-08-19T11:44:48;36.20;52.90
2477;DHT22;1249;51.270;6.756;2022-08-19T11:47:15;36.50;52.10
2477;DHT22;1249;51.270;6.756;2022-08-19T11:49:42;36.60;51.60
2477;DHT22;1249;51.270;6.756;2022-08-19T11:52:08;36.90;51.50
2477;DHT22;1249;51.270;6.756;2022-08-19T11:54:37;37.00;51.00
2477;DHT22;1249;51.270;6.756;2022-08-19T11:57:04;37.20;50.90
2477;DHT22;1249;51.270;6.756;2022-08-19T11:59:31;37.30;50.20
2477;DHT22;1249;51.270;6.756;2022-08-19T12:01:58;37.50;49.80
2477;DHT22;1249;51.270;6.756;2022-08-19T12:04:24;37.60;49.30
2477;DHT22;1249;51.270;6.756;2022-08-19T12:06:51;37.80;49.00
2477;DHT22;1249;51.270;6.756;2022-08-19T12:09:18;38.00;48.40
2477;DHT22;1249;51.270;6.756;2022-08-19T12:11:46;38.10;48.20
2477;DHT22;1249;51.270;6.756;2022-08-19T12:14:14;38.30;48.40
2477;DHT22;1249;51.270;6.756;2022-08-19T12:16:40;38.30;48.20
2477;DHT22;1249;51.270;6.756;2022-08-19T12:19:07;38.30;47.80
2477;DHT22;1249;51.270;6.756;2022-08-19T12:21:35;38.30;47.90
2477;DHT22;1249;51.270;6.756;2022-08-19T12:24:03;38.00;47.80
2477;DHT22;1249;51.270;6.756;2022-08-19T12:26:30;37.60;47.70
2477;DHT22;1249;51.270;6.756;2022-08-19T12:28:59;37.50;47.50
2477;DHT22;1249;51.270;6.756;2022-08-19T12:31:26;37.50;47.50
2477;DHT22;1249;51.270;6.756;2022-08-19T12:33:53;37.50;47.70
2477;DHT22;1249;51.270;6.756;2022-08-19T12:36:20;37.70;47.90
2477;DHT22;1249;51.270;6.756;2022-08-19T12:38:47;37.80;48.10
2477;DHT22;1249;51.270;6.756;2022-08-19T12:41:15;37.90;48.00
2477;DHT22;1249;51.270;6.756;2022-08-19T12:43:44;38.10;47.60
2477;DHT22;1249;51.270;6.756;2022-08-19T12:46:12;38.30;47.40
2477;DHT22;1249;51.270;6.756;2022-08-19T12:48:39;38.20;47.10
2477;DHT22;1249;51.270;6.756;2022-08-19T12:51:09;38.00;46.90
2477;DHT22;1249;51.270;6.756;2022-08-19T12:53:37;37.80;46.80
2477;DHT22;1249;51.270;6.756;2022-08-19T12:56:04;37.60;46.70
2477;DHT22;1249;51.270;6.756;2022-08-19T12:58:32;37.30;46.90
2477;DHT22;1249;51.270;6.756;2022-08-19T13:01:06;37.10;48.00
2477;DHT22;1249;51.270;6.756;2022-08-19T13:03:34;37.20;47.30
2477;DHT22;1249;51.270;6.756;2022-08-19T13:06:02;37.20;46.80
2477;DHT22;1249;51.270;6.756;2022-08-19T13:08:29;37.30;46.80
2477;DHT22;1249;51.270;6.756;2022-08-19T13:10:56;37.40;46.50
2477;DHT22;1249;51.270;6.756;2022-08-19T13:13:23;37.60;46.20
2477;DHT22;1249;51.270;6.756;2022-08-19T13:15:51;37.80;46.30
2477;DHT22;1249;51.270;6.756;2022-08-19T13:18:18;38.00;46.00
2477;DHT22;1249;51.270;6.756;2022-08-19T13:20:46;38.20;45.90
2477;DHT22;1249;51.270;6.756;2022-08-19T13:23:13;38.40;45.80
2477;DHT22;1249;51.270;6.756;2022-08-19T13:25:40;38.50;45.00
2477;DHT22;1249;51.270;6.756;2022-08-19T13:28:06;38.60;44.40
2477;DHT22;1249;51.270;6.756;2022-08-19T13:30:33;38.70;44.30
2477;DHT22;1249;51.270;6.756;2022-08-19T13:33:18;38.80;44.10
2477;DHT22;1249;51.270;6.756;2022-08-19T13:35:50;38.90;44.60
2477;DHT22;1249;51.270;6.756;2022-08-19T13:38:22;39.00;44.70
2477;DHT22;1249;51.270;6.756;2022-08-19T13:40:50;39.00;44.00
2477;DHT22;1249;51.270;6.756;2022-08-19T13:43:18;39.00;44.10
2477;DHT22;1249;51.270;6.756;2022-08-19T13:45:47;39.00;44.00
2477;DHT22;1249;51.270;6.756;2022-08-19T13:48:14;39.00;43.90
2477;DHT22;1249;51.270;6.756;2022-08-19T13:50:44;39.00;43.60
2477;DHT22;1249;51.270;6.756;2022-08-19T13:53:14;39.10;42.90
2477;DHT22;1249;51.270;6.756;2022-08-19T13:55:42;39.00;43.20
2477;DHT22;1249;51.270;6.756;2022-08-19T13:58:10;39.10;42.80
2477;DHT22;1249;51.270;6.756;2022-08-19T14:00:40;39.10;42.30
2477;DHT22;1249;51.270;6.756;2022-08-19T14:03:07;39.30;42.00
2477;DHT22;1249;51.270;6.756;2022-08-19T14:05:34;39.20;42.40
2477;DHT22;1249;51.270;6.756;2022-08-19T14:08:01;39.10;42.70
2477;DHT22;1249;51.270;6.756;2022-08-19T14:10:30;39.00;42.90
2477;DHT22;1249;51.270;6.756;2022-08-19T14:12:58;39.00;43.00
2477;DHT22;1249;51.270;6.756;2022-08-19T14:15:26;39.00;43.20
2477;DHT22;1249;51.270;6.756;2022-08-19T14:17:53;39.00;42.90
2477;DHT22;1249;51.270;6.756;2022-08-19T14:20:21;39.00;43.00
2477;DHT22;1249;51.270;6.756;2022-08-19T14:22:49;39.00;43.40
2477;DHT22;1249;51.270;6.756;2022-08-19T14:25:18;39.00;42.80
2477;DHT22;1249;51.270;6.756;2022-08-19T14:27:47;39.10;43.10
2477;DHT22;1249;51.270;6.756;2022-08-19T14:30:16;39.10;43.30
2477;DHT22;1249;51.270;6.756;2022-08-19T14:32:43;39.10;42.70
2477;DHT22;1249;51.270;6.756;2022-08-19T14:35:12;39.00;42.30
2477;DHT22;1249;51.270;6.756;2022-08-19T14:37:40;39.10;42.50
2477;DHT22;1249;51.270;6.756;2022-08-19T14:40:08;39.00;42.50
2477;DHT22;1249;51.270;6.756;2022-08-19T14:42:36;39.00;42.60
2477;DHT22;1249;51.270;6.756;2022-08-19T14:45:05;38.90;42.30
2477;DHT22;1249;51.270;6.756;2022-08-19T14:47:32;38.80;42.60
2477;DHT22;1249;51.270;6.756;2022-08-19T14:49:59;38.70;42.50
2477;DHT22;1249;51.270;6.756;2022-08-19T14:52:28;38.60;42.90
2477;DHT22;1249;51.270;6.756;2022-08-19T14:54:55;38.60;43.20
2477;DHT22;1249;51.270;6.756;2022-08-19T14:57:22;38.50;43.30
2477;DHT22;1249;51.270;6.756;2022-08-19T14:59:48;38.50;43.50
2477;DHT22;1249;51.270;6.756;2022-08-19T15:02:17;38.40;43.90
2477;DHT22;1249;51.270;6.756;2022-08-19T15:04:45;38.30;43.60
2477;DHT22;1249;51.270;6.756;2022-08-19T15:07:17;38.20;43.90
2477;DHT22;1249;51.270;6.756;2022-08-19T15:09:44;38.10;43.20
2477;DHT22;1249;51.270;6.756;2022-08-19T15:12:10;38.00;43.20
2477;DHT22;1249;51.270;6.756;2022-08-19T15:14:37;37.90;43.20
2477;DHT22;1249;51.270;6.756;2022-08-19T15:17:07;37.80;43.30
2477;DHT22;1249;51.270;6.756;2022-08-19T15:19:35;37.70;43.40
2477;DHT22;1249;51.270;6.756;2022-08-19T15:22:02;37.50;43.70
2477;DHT22;1249;51.270;6.756;2022-08-19T15:24:29;37.40;43.80
2477;DHT22;1249;51.270;6.756;2022-08-19T15:26:56;37.30;44.10
2477;DHT22;1249;51.270;6.756;2022-08-19T15:29:23;37.20;44.40
2477;DHT22;1249;51.270;6.756;2022-08-19T15:31:51;36.90;45.00
2477;DHT22;1249;51.270;6.756;2022-08-19T15:34:20;36.80;44.70
2477;DHT22;1249;51.270;6.756;2022-08-19T15:36:48;36.70;44.80
2477;DHT22;1249;51.270;6.756;2022-08-19T15:39:15;36.60;45.70
2477;DHT22;1249;51.270;6.756;2022-08-19T15:41:44;36.50;46.20
2477;DHT22;1249;51.270;6.756;2022-08-19T15:44:13;36.50;46.40
2477;DHT22;1249;51.270;6.756;2022-08-19T15:46:41;36.30;46.50
2477;DHT22;1249;51.270;6.756;2022-08-19T15:49:09;36.30;46.50
2477;DHT22;1249;51.270;6.756;2022-08-19T15:51:38;36.20;46.80
2477;DHT22;1249;51.270;6.756;2022-08-19T15:54:09;36.10;47.30
2477;DHT22;1249;51.270;6.756;2022-08-19T15:56:36;35.90;47.40
2477;DHT22;1249;51.270;6.756;2022-08-19T15:59:26;35.80;47.20
2477;DHT22;1249;51.270;6.756;2022-08-19T16:02:10;35.50;47.50
2477;DHT22;1249;51.270;6.756;2022-08-19T16:04:55;35.30;48.60
2477;DHT22;1249;51.270;6.756;2022-08-19T16:07:39;35.10;48.20
2477;DHT22;1249;51.270;6.756;2022-08-19T16:10:08;35.00;48.40
2477;DHT22;1249;51.270;6.756;2022-08-19T16:12:34;34.90;49.20